createdAt,value
2023-04-03T00:00:43.418Z,0.94
2023-04-03T00:01:43.468Z,0.91
2023-04-03T00:02:43.476Z,0.86
2023-04-03T00:03:43.400Z,0.87
2023-04-03T00:04:43.408Z,0.91
2023-04-03T00:05:43.393Z,0.80
2023-04-03T00:06:43.337Z,0.91
2023-04-03T00:07:43.328Z,0.79
2023-04-03T00:08:43.308Z,0.83
2023-04-03T00:09:43.309Z,0.84
2023-04-03T00:10:43.319Z,0.83
2023-04-03T00:11:43.304Z,0.87
2023-04-03T00:12:43.274Z,0.86
2023-04-03T00:13:43.259Z,0.93
2023-04-03T00:14:43.266Z,0.86
2023-04-03T00:15:43.254Z,0.72
2023-04-03T00:16:43.302Z,0.79
2023-04-03T00:17:43.297Z,0.75
2023-04-03T00:18:43.196Z,0.73
2023-04-03T00:19:43.237Z,0.80
2023-04-03T00:20:43.196Z,0.75
2023-04-03T00:21:43.211Z,0.75
2023-04-03T00:22:43.163Z,0.80
2023-04-03T00:23:43.144Z,0.70
2023-04-03T00:24:43.132Z,0.73
2023-04-03T00:25:43.182Z,0.70
2023-04-03T00:26:43.116Z,0.75
2023-04-03T00:27:43.115Z,0.87
2023-04-03T00:28:43.100Z,0.90
2023-04-03T00:29:43.090Z,0.87
2023-04-03T00:30:43.134Z,0.83
2023-04-03T00:31:43.120Z,0.84
2023-04-03T00:32:43.109Z,0.84
2023-04-03T00:33:43.061Z,0.86
2023-04-03T00:34:43.023Z,0.90
2023-04-03T00:35:43.162Z,0.84
2023-04-03T00:36:43.080Z,0.84
2023-04-03T00:37:43.025Z,0.80
2023-04-03T00:38:42.972Z,0.88
2023-04-03T00:39:42.977Z,0.79
2023-04-03T00:40:42.963Z,0.72
2023-04-03T00:41:42.960Z,0.72
2023-04-03T00:42:42.956Z,0.78
2023-04-03T00:43:42.938Z,0.72
2023-04-03T00:44:42.905Z,0.73
2023-04-03T00:45:42.920Z,0.73
2023-04-03T00:46:42.956Z,0.73
2023-04-03T00:47:43.001Z,0.72
2023-04-03T00:48:42.865Z,0.68
2023-04-03T00:49:42.870Z,0.72
2023-04-03T00:50:42.855Z,0.62
2023-04-03T00:51:42.884Z,0.70
2023-04-03T00:52:42.833Z,0.62
2023-04-03T00:53:42.838Z,0.61
2023-04-03T00:54:42.796Z,0.65
2023-04-03T00:55:42.805Z,0.69
2023-04-03T00:56:42.789Z,0.72
2023-04-03T00:57:42.794Z,0.65
2023-04-03T00:58:42.750Z,0.65
2023-04-03T00:59:42.762Z,0.72
2023-04-03T01:00:42.745Z,0.58
2023-04-03T01:01:42.777Z,0.66
2023-04-03T01:02:42.748Z,0.68
2023-04-03T01:03:42.726Z,0.65
2023-04-03T01:04:42.824Z,0.62
2023-04-03T01:05:42.686Z,0.61
2023-04-03T01:06:42.679Z,0.53
2023-04-03T01:07:42.679Z,0.44
2023-04-03T01:08:42.655Z,0.47
2023-04-03T01:09:42.684Z,0.50
2023-04-03T01:10:42.625Z,0.41
2023-04-03T01:11:42.632Z,0.47
2023-04-03T01:12:46.701Z,0.35
2023-04-03T01:13:42.598Z,0.38
2023-04-03T01:15:42.589Z,0.42
2023-04-03T01:16:42.573Z,0.39
2023-04-03T01:17:42.608Z,0.31
2023-04-03T01:18:42.540Z,0.32
2023-04-03T01:19:42.582Z,0.36
2023-04-03T01:20:42.513Z,0.36
2023-04-03T01:21:42.510Z,0.39
2023-04-03T01:22:42.497Z,0.35
2023-04-03T01:23:42.512Z,0.29
2023-04-03T01:24:42.502Z,0.32
2023-04-03T01:25:42.499Z,0.26
2023-04-03T01:26:42.542Z,0.24
2023-04-03T01:27:42.473Z,0.31
2023-04-03T01:28:42.425Z,0.26
2023-04-03T01:29:42.456Z,0.26
2023-04-03T01:30:42.417Z,0.33
2023-04-03T01:31:42.446Z,0.31
2023-04-03T01:32:42.448Z,0.29
2023-04-03T01:33:42.375Z,0.32
2023-04-03T01:34:42.392Z,0.26
2023-04-03T01:35:42.365Z,0.26
2023-04-03T01:36:42.341Z,0.24
2023-04-03T01:37:42.366Z,0.23
2023-04-03T01:38:42.315Z,0.28
2023-04-03T01:39:42.306Z,0.24
2023-04-03T01:40:42.293Z,0.28
2023-04-03T01:41:42.305Z,0.23
2023-04-03T01:42:42.661Z,0.35
2023-04-03T01:43:42.299Z,0.28
2023-04-03T01:44:42.294Z,0.20
2023-04-03T01:45:42.264Z,0.18
2023-04-03T01:46:42.234Z,0.13
2023-04-03T01:47:42.290Z,0.21
2023-04-03T01:48:42.230Z,0.13
2023-04-03T01:49:42.203Z,0.08
2023-04-03T01:50:42.191Z,0.08
2023-04-03T01:51:42.171Z,0.13
2023-04-03T01:52:42.174Z,0.07
2023-04-03T01:53:42.167Z,0.15
2023-04-03T01:54:42.148Z,0.11
2023-04-03T01:55:42.129Z,0.17
2023-04-03T01:56:42.120Z,0.28
2023-04-03T01:57:42.169Z,0.11
2023-04-03T01:58:42.102Z,0.07
2023-04-03T01:59:42.082Z,0.10
2023-04-03T02:00:42.063Z,0.08
2023-04-03T02:01:42.109Z,-0.05
2023-04-03T02:02:42.087Z,0.03
2023-04-03T02:03:42.084Z,-0.05
2023-04-03T02:04:42.035Z,-0.01
2023-04-03T02:05:42.012Z,-0.01
2023-04-03T02:06:42.000Z,0.00
2023-04-03T02:07:42.049Z,-0.07
2023-04-03T02:08:41.994Z,-0.01
2023-04-03T02:09:41.977Z,-0.03
2023-04-03T02:10:42.788Z,-0.07
2023-04-03T02:11:41.947Z,-0.04
2023-04-03T02:12:41.953Z,-0.16
2023-04-03T02:13:41.942Z,-0.16
2023-04-03T02:14:41.927Z,-0.11
2023-04-03T02:15:41.898Z,-0.14
2023-04-03T02:16:42.004Z,-0.11
2023-04-03T02:17:41.982Z,-0.22
2023-04-03T02:18:41.867Z,-0.08
2023-04-03T02:19:41.855Z,-0.15
2023-04-03T02:20:41.859Z,-0.16
2023-04-03T02:21:41.930Z,-0.21
2023-04-03T02:22:41.820Z,-0.18
2023-04-03T02:23:41.845Z,-0.21
2023-04-03T02:24:41.800Z,-0.21
2023-04-03T02:25:41.783Z,-0.18
2023-04-03T02:26:41.773Z,-0.23
2023-04-03T02:27:41.765Z,-0.15
2023-04-03T02:28:41.773Z,-0.18
2023-04-03T02:29:41.760Z,-0.18
2023-04-03T02:30:41.802Z,-0.21
2023-04-03T02:31:41.717Z,-0.22
2023-04-03T02:32:41.743Z,-0.16
2023-04-03T02:33:41.697Z,-0.21
2023-04-03T02:34:41.684Z,-0.23
2023-04-03T02:35:41.734Z,-0.28
2023-04-03T02:36:41.676Z,-0.22
2023-04-03T02:37:41.649Z,-0.23
2023-04-03T02:38:41.639Z,-0.25
2023-04-03T02:39:41.652Z,-0.23
2023-04-03T02:40:41.648Z,-0.31
2023-04-03T02:41:41.607Z,-0.23
2023-04-03T02:42:41.599Z,-0.26
2023-04-03T02:43:41.614Z,-0.22
2023-04-03T02:44:41.580Z,-0.28
2023-04-03T02:45:41.585Z,-0.31
2023-04-03T02:46:41.570Z,-0.34
2023-04-03T02:47:41.637Z,-0.42
2023-04-03T02:48:41.542Z,-0.46
2023-04-03T02:49:41.547Z,-0.42
2023-04-03T02:50:41.531Z,-0.44
2023-04-03T02:51:41.523Z,-0.43
2023-04-03T02:52:41.503Z,-0.44
2023-04-03T02:53:41.494Z,-0.40
2023-04-03T02:54:41.476Z,-0.49
2023-04-03T02:55:41.482Z,-0.55
2023-04-03T02:56:41.459Z,-0.55
2023-04-03T02:57:41.465Z,-0.67
2023-04-03T02:58:41.421Z,-0.58
2023-04-03T02:59:41.434Z,-0.62
2023-04-03T03:00:41.416Z,-0.55
2023-04-03T03:01:41.448Z,-0.69
2023-04-03T03:02:41.414Z,-0.60
2023-04-03T03:03:41.370Z,-0.62
2023-04-03T03:04:41.369Z,-0.67
2023-04-03T03:05:41.376Z,-0.65
2023-04-03T03:06:42.883Z,-0.69
2023-04-03T03:07:41.349Z,-0.70
2023-04-03T03:08:41.336Z,-0.67
2023-04-03T03:09:41.297Z,-0.72
2023-04-03T03:10:41.304Z,-0.73
2023-04-03T03:11:41.319Z,-0.67
2023-04-03T03:12:41.270Z,-0.73
2023-04-03T03:13:41.267Z,-0.79
2023-04-03T03:14:41.265Z,-0.72
2023-04-03T03:15:41.263Z,-0.80
2023-04-03T03:16:41.241Z,-0.75
2023-04-03T03:17:41.252Z,-0.80
2023-04-03T03:18:41.205Z,-0.79
2023-04-03T03:19:41.218Z,-0.80
2023-04-03T03:20:41.174Z,-0.78
2023-04-03T03:21:41.218Z,-0.80
2023-04-03T03:22:41.166Z,-0.75
2023-04-03T03:23:41.165Z,-0.89
2023-04-03T03:24:41.134Z,-0.82
2023-04-03T03:25:41.179Z,-0.85
2023-04-03T03:26:41.148Z,-0.97
2023-04-03T03:27:41.111Z,-0.98
2023-04-03T03:28:41.108Z,-0.98
2023-04-03T03:29:41.112Z,-0.94
2023-04-03T03:30:41.082Z,-0.97
2023-04-03T03:31:41.106Z,-1.05
2023-04-03T03:32:41.105Z,-0.99
2023-04-03T03:33:41.070Z,-0.95
2023-04-03T03:34:41.053Z,-1.01
2023-04-03T03:35:41.099Z,-1.01
2023-04-03T03:36:41.015Z,-1.04
2023-04-03T03:37:40.999Z,-1.09
2023-04-03T03:38:41.006Z,-1.07
2023-04-03T03:39:40.963Z,-1.12
2023-04-03T03:40:40.967Z,-1.07
2023-04-03T03:41:40.957Z,-1.10
2023-04-03T03:42:40.974Z,-1.09
2023-04-03T03:43:40.983Z,-1.13
2023-04-03T03:44:40.942Z,-1.13
2023-04-03T03:45:41.054Z,-1.13
2023-04-03T03:46:40.908Z,-1.19
2023-04-03T03:47:41.046Z,-1.17
2023-04-03T03:48:40.900Z,-1.22
2023-04-03T03:49:40.918Z,-1.16
2023-04-03T03:50:40.864Z,-1.19
2023-04-03T03:51:41.510Z,-1.17
2023-04-03T03:52:40.822Z,-1.16
2023-04-03T03:53:40.833Z,-1.10
2023-04-03T03:54:40.845Z,-1.16
2023-04-03T03:55:40.803Z,-1.16
2023-04-03T03:56:40.788Z,-1.15
2023-04-03T03:57:40.826Z,-1.20
2023-04-03T03:58:40.759Z,-1.15
2023-04-03T03:59:40.750Z,-1.15
2023-04-03T04:00:40.745Z,-1.19
2023-04-03T04:01:40.776Z,-1.25
2023-04-03T04:02:40.825Z,-1.27
2023-04-03T04:03:40.807Z,-1.25
2023-04-03T04:04:40.705Z,-1.28
2023-04-03T04:05:40.720Z,-1.22
2023-04-03T04:06:40.672Z,-1.23
2023-04-03T04:07:40.681Z,-1.23
2023-04-03T04:08:40.926Z,-1.20
2023-04-03T04:09:40.641Z,-1.37
2023-04-03T04:10:40.642Z,-1.35
2023-04-03T04:11:40.634Z,-1.17
2023-04-03T04:12:40.614Z,-1.31
2023-04-03T04:13:40.621Z,-1.23
2023-04-03T04:14:40.584Z,-1.25
2023-04-03T04:15:40.782Z,-1.27
2023-04-03T04:16:40.602Z,-1.35
2023-04-03T04:17:40.612Z,-1.45
2023-04-03T04:18:40.541Z,-1.45
2023-04-03T04:19:40.545Z,-1.48
2023-04-03T04:20:40.538Z,-1.45
2023-04-03T04:21:40.531Z,-1.48
2023-04-03T04:22:40.505Z,-1.45
2023-04-03T04:23:40.478Z,-1.43
2023-04-03T04:24:40.503Z,-1.41
2023-04-03T04:25:40.489Z,-1.51
2023-04-03T04:26:40.465Z,-1.43
2023-04-03T04:27:40.456Z,-1.49
2023-04-03T04:28:40.431Z,-1.51
2023-04-03T04:29:40.569Z,-1.38
2023-04-03T04:30:40.437Z,-1.54
2023-04-03T04:31:40.396Z,-1.49
2023-04-03T04:32:40.419Z,-1.45
2023-04-03T04:33:40.368Z,-1.48
2023-04-03T04:34:40.425Z,-1.48
2023-04-03T04:35:40.601Z,-1.54
2023-04-03T04:36:40.408Z,-1.52
2023-04-03T04:37:40.343Z,-1.52
2023-04-03T04:38:40.337Z,-1.56
2023-04-03T04:39:40.301Z,-1.59
2023-04-03T04:40:40.295Z,-1.58
2023-04-03T04:41:40.305Z,-1.61
2023-04-03T04:42:40.282Z,-1.56
2023-04-03T04:43:40.265Z,-1.58
2023-04-03T04:44:40.246Z,-1.62
2023-04-03T04:45:40.359Z,-1.58
2023-04-03T04:46:40.294Z,-1.56
2023-04-03T04:47:40.266Z,-1.64
2023-04-03T04:48:40.206Z,-1.55
2023-04-03T04:49:40.200Z,-1.54
2023-04-03T04:50:40.189Z,-1.64
2023-04-03T04:51:50.893Z,-1.61
2023-04-03T04:52:41.189Z,-1.54
2023-04-03T04:53:40.188Z,-1.52
2023-04-03T04:54:40.145Z,-1.55
2023-04-03T04:55:47.830Z,-1.54
2023-04-03T04:56:40.178Z,-1.58
2023-04-03T04:57:40.218Z,-1.55
2023-04-03T04:58:40.185Z,-1.59
2023-04-03T04:59:40.104Z,-1.56
2023-04-03T05:00:40.085Z,-1.52
2023-04-03T05:01:40.269Z,-1.54
2023-04-03T05:02:40.169Z,-1.54
2023-04-03T05:03:40.239Z,-1.55
2023-04-03T05:04:40.140Z,-1.58
2023-04-03T05:05:40.272Z,-1.58
2023-04-03T05:06:40.039Z,-1.66
2023-04-03T05:07:40.013Z,-1.62
2023-04-03T05:08:39.987Z,-1.59
2023-04-03T05:09:40.018Z,-1.58
2023-04-03T05:10:39.973Z,-1.61
2023-04-03T05:11:40.161Z,-1.55
2023-04-03T05:13:58.220Z,-1.55
2023-04-03T05:14:58.212Z,-1.64
2023-04-03T05:15:58.153Z,-1.59
2023-04-03T05:16:58.183Z,-1.56
2023-04-03T05:17:58.157Z,-1.61
2023-04-03T05:18:58.155Z,-1.64
2023-04-03T05:19:58.105Z,-1.70
2023-04-03T05:20:58.094Z,-1.67
2023-04-03T05:21:58.069Z,-1.76
2023-04-03T05:22:58.127Z,-1.73
2023-04-03T05:23:58.057Z,-1.76
2023-04-03T05:24:58.105Z,-1.94
2023-04-03T05:25:58.034Z,-1.92
2023-04-03T05:27:05.578Z,-1.87
2023-04-03T05:27:58.029Z,-1.90
2023-04-03T05:28:58.020Z,-1.85
2023-04-03T05:29:58.015Z,-1.76
2023-04-03T05:30:57.976Z,-1.97
2023-04-03T05:31:58.063Z,-1.92
2023-04-03T05:32:58.011Z,-1.90
2023-04-03T05:33:57.948Z,-2.08
2023-04-03T05:35:00.106Z,-2.02
2023-04-03T05:35:57.953Z,-1.98
2023-04-03T05:36:57.929Z,-1.94
2023-04-03T05:37:57.898Z,-1.94
2023-04-03T05:38:57.921Z,-1.92
2023-04-03T05:39:57.868Z,-1.92
2023-04-03T05:40:57.901Z,-1.92
2023-04-03T05:41:57.852Z,-1.94
2023-04-03T05:42:57.835Z,-1.95
2023-04-03T05:43:57.823Z,-1.95
2023-04-03T05:44:57.823Z,-1.94
2023-04-03T05:45:57.886Z,-1.94
2023-04-03T05:46:57.806Z,-1.92
2023-04-03T05:47:57.817Z,-1.88
2023-04-03T05:48:57.787Z,-1.88
2023-04-03T05:49:57.779Z,-1.90
2023-04-03T05:50:57.745Z,-1.76
2023-04-03T05:51:57.733Z,-1.74
2023-04-03T05:52:57.749Z,-1.74
2023-04-03T05:53:57.711Z,-1.77
2023-04-03T05:54:57.781Z,-1.77
2023-04-03T05:55:57.694Z,-1.67
2023-04-03T05:56:57.763Z,-1.67
2023-04-03T05:57:57.692Z,-1.69
2023-04-03T05:58:57.650Z,-1.69
2023-04-03T05:59:57.655Z,-1.62
2023-04-03T06:01:00.456Z,-1.67
2023-04-03T06:01:57.670Z,-1.72
2023-04-03T06:02:57.806Z,-1.70
2023-04-03T06:03:57.703Z,-1.64
2023-04-03T06:04:57.766Z,-1.52
2023-04-03T06:05:57.598Z,-1.52
2023-04-03T06:06:57.656Z,-1.56
2023-04-03T06:07:57.572Z,-1.74
2023-04-03T06:08:57.580Z,-1.56
2023-04-03T06:09:57.570Z,-1.66
2023-04-03T06:10:57.573Z,-1.62
2023-04-03T06:11:57.564Z,-1.59
2023-04-03T06:12:57.584Z,-1.69
2023-04-03T06:13:57.489Z,-1.72
2023-04-03T06:14:57.481Z,-1.61
2023-04-03T06:15:57.478Z,-1.49
2023-04-03T06:16:57.520Z,-1.58
2023-04-03T06:17:57.511Z,-1.62
2023-04-03T06:18:57.440Z,-1.62
2023-04-03T06:19:57.424Z,-1.69
2023-04-03T06:20:57.448Z,-1.79
2023-04-03T06:21:57.425Z,-1.90
2023-04-03T06:22:57.417Z,-1.88
2023-04-03T06:23:57.383Z,-1.87
2023-04-03T06:24:57.398Z,-1.85
2023-04-03T06:25:57.381Z,-1.79
2023-04-03T06:26:57.350Z,-1.70
2023-04-03T06:27:57.358Z,-1.82
2023-04-03T06:28:57.474Z,-1.74
2023-04-03T06:29:57.373Z,-1.76
2023-04-03T06:30:57.393Z,-1.76
2023-04-03T06:31:57.320Z,-1.90
2023-04-03T06:32:57.334Z,-1.84
2023-04-03T06:33:57.285Z,-1.77
2023-04-03T06:34:57.275Z,-1.76
2023-04-03T06:35:57.284Z,-1.77
2023-04-03T06:36:57.269Z,-1.76
2023-04-03T06:37:57.227Z,-1.70
2023-04-03T06:38:57.216Z,-1.67
2023-04-03T06:39:57.208Z,-1.52
2023-04-03T06:40:57.196Z,-1.61
2023-04-03T06:41:57.221Z,-1.52
2023-04-03T06:42:57.170Z,-1.45
2023-04-03T06:43:57.160Z,-1.38
2023-04-03T06:44:57.166Z,-1.35
2023-04-03T06:45:57.154Z,-1.38
2023-04-03T06:46:57.208Z,-1.48
2023-04-03T06:47:57.347Z,-1.35
2023-04-03T06:48:57.106Z,-1.31
2023-04-03T06:49:57.119Z,-1.30
2023-04-03T06:50:57.081Z,-1.25
2023-04-03T06:51:57.095Z,-1.27
2023-04-03T06:52:57.059Z,-1.35
2023-04-03T06:53:57.057Z,-1.16
2023-04-03T06:54:57.062Z,-1.13
2023-04-03T06:55:57.023Z,-1.02
2023-04-03T06:56:57.069Z,-0.98
2023-04-03T06:57:57.006Z,-1.07
2023-04-03T06:58:57.010Z,-1.13
2023-04-03T06:59:56.991Z,-1.20
2023-04-03T07:00:57.056Z,-1.20
2023-04-03T07:01:57.091Z,-1.19
2023-04-03T07:02:57.009Z,-1.20
2023-04-03T07:03:56.941Z,-1.22
2023-04-03T07:04:56.993Z,-1.28
2023-04-03T07:05:56.918Z,-1.23
2023-04-03T07:06:56.949Z,-1.27
2023-04-03T07:07:56.898Z,-1.20
2023-04-03T07:08:56.878Z,-1.19
2023-04-03T07:09:56.873Z,-1.19
2023-04-03T07:10:56.876Z,-1.22
2023-04-03T07:11:56.851Z,-1.31
2023-04-03T07:12:56.841Z,-1.27
2023-04-03T07:13:56.837Z,-1.23
2023-04-03T07:14:56.972Z,-1.43
2023-04-03T07:15:56.902Z,-1.49
2023-04-03T07:16:56.997Z,-1.33
2023-04-03T07:17:56.888Z,-1.28
2023-04-03T07:18:56.805Z,-1.37
2023-04-03T07:19:56.784Z,-1.20
2023-04-03T07:20:56.780Z,-1.12
2023-04-03T07:21:56.805Z,-1.13
2023-04-03T07:22:56.732Z,-1.10
2023-04-03T07:23:56.741Z,-1.17
2023-04-03T07:24:56.721Z,-1.17
2023-04-03T07:25:56.725Z,-1.25
2023-04-03T07:26:56.690Z,-1.07
2023-04-03T07:28:03.895Z,-0.99
2023-04-03T07:28:56.679Z,-0.80
2023-04-03T07:29:56.684Z,-0.85
2023-04-03T07:30:56.665Z,-0.80
2023-04-03T07:31:56.714Z,-0.75
2023-04-03T07:32:56.689Z,-0.65
2023-04-03T07:33:56.610Z,-0.76
2023-04-03T07:34:56.612Z,-0.86
2023-04-03T07:35:56.654Z,-0.80
2023-04-03T07:36:56.585Z,-0.89
2023-04-03T07:37:57.990Z,-0.79
2023-04-03T07:38:56.566Z,-1.04
2023-04-03T07:39:56.627Z,-1.05
2023-04-03T07:40:56.567Z,-1.10
2023-04-03T07:41:56.581Z,-0.95
2023-04-03T07:43:03.657Z,-1.16
2023-04-03T07:43:56.520Z,-1.02
2023-04-03T07:44:56.511Z,-1.05
2023-04-03T07:45:56.518Z,-0.98
2023-04-03T07:46:56.468Z,-1.04
2023-04-03T07:47:56.538Z,-0.92
2023-04-03T07:48:57.498Z,-0.99
2023-04-03T07:49:56.444Z,-0.83
2023-04-03T07:50:56.420Z,-0.79
2023-04-03T07:51:56.435Z,-0.72
2023-04-03T07:52:56.415Z,-0.70
2023-04-03T07:53:56.388Z,-0.70
2023-04-03T07:54:56.374Z,-0.76
2023-04-03T07:55:56.509Z,-0.70
2023-04-03T07:56:56.376Z,-0.67
2023-04-03T07:57:56.376Z,-0.79
2023-04-03T07:58:56.361Z,-0.79
2023-04-03T07:59:56.412Z,-0.75
2023-04-03T08:00:56.314Z,-0.72
2023-04-03T08:01:56.311Z,-0.69
2023-04-03T08:02:56.428Z,-0.78
2023-04-03T08:03:56.397Z,-0.64
2023-04-03T08:04:56.491Z,-0.72
2023-04-03T08:05:56.256Z,-0.60
2023-04-03T08:06:56.253Z,-0.54
2023-04-03T08:07:56.234Z,-0.58
2023-04-03T08:08:56.229Z,-0.51
2023-04-03T08:09:56.236Z,-0.52
2023-04-03T08:10:56.196Z,-0.46
2023-04-03T08:11:56.190Z,-0.26
2023-04-03T08:12:56.175Z,-0.14
2023-04-03T08:13:56.183Z,-0.04
2023-04-03T08:14:56.157Z,0.03
2023-04-03T08:15:56.215Z,0.14
2023-04-03T08:16:56.204Z,0.29
2023-04-03T08:17:56.133Z,0.28
2023-04-03T08:18:56.169Z,0.32
2023-04-03T08:19:56.215Z,0.38
2023-04-03T08:20:56.106Z,0.33
2023-04-03T08:21:56.192Z,0.32
2023-04-03T08:22:56.089Z,0.23
2023-04-03T08:23:56.060Z,0.24
2023-04-03T08:24:59.375Z,0.10
2023-04-03T08:25:56.039Z,0.13
2023-04-03T08:26:56.056Z,0.15
2023-04-03T08:27:56.013Z,0.17
2023-04-03T08:28:55.999Z,0.17
2023-04-03T08:29:55.986Z,0.21
2023-04-03T08:30:56.038Z,0.26
2023-04-03T08:31:55.974Z,0.29
2023-04-03T08:32:55.984Z,0.28
2023-04-03T08:33:55.962Z,0.20
2023-04-03T08:34:55.948Z,0.26
2023-04-03T08:35:55.960Z,0.29
2023-04-03T08:36:55.936Z,0.29
2023-04-03T08:37:55.896Z,0.32
2023-04-03T08:38:55.940Z,0.29
2023-04-03T08:39:55.912Z,0.29
2023-04-03T08:40:55.903Z,0.32
2023-04-03T08:41:55.860Z,0.36
2023-04-03T08:42:55.847Z,0.50
2023-04-03T08:43:55.840Z,0.46
2023-04-03T08:44:55.849Z,0.51
2023-04-03T08:45:55.829Z,0.41
2023-04-03T08:46:55.821Z,0.29
2023-04-03T08:47:56.573Z,0.29
2023-04-03T08:48:55.780Z,0.24
2023-04-03T08:49:55.791Z,0.24
2023-04-03T08:50:55.766Z,0.10
2023-04-03T08:51:55.764Z,0.11
2023-04-03T08:52:55.867Z,0.18
2023-04-03T08:53:55.721Z,0.23
2023-04-03T08:54:55.711Z,0.17
2023-04-03T08:55:55.695Z,0.14
2023-04-03T08:56:55.746Z,-0.01
2023-04-03T08:57:55.691Z,0.08
2023-04-03T08:58:55.693Z,0.11
2023-04-03T08:59:55.665Z,0.08
2023-04-03T09:00:55.651Z,0.08
2023-04-03T09:01:55.694Z,0.10
2023-04-03T09:02:55.672Z,0.29
2023-04-03T09:03:55.674Z,0.32
2023-04-03T09:04:55.625Z,0.50
2023-04-03T09:05:55.669Z,0.51
2023-04-03T09:06:55.585Z,0.49
2023-04-03T09:07:55.588Z,0.65
2023-04-03T09:08:55.683Z,0.80
2023-04-03T09:09:55.549Z,0.78
2023-04-03T09:10:55.533Z,0.76
2023-04-03T09:11:55.532Z,0.57
2023-04-03T09:12:55.529Z,0.35
2023-04-03T09:13:55.535Z,0.46
2023-04-03T09:14:56.057Z,0.44
2023-04-03T09:15:55.496Z,0.53
2023-04-03T09:16:55.479Z,0.62
2023-04-03T09:17:55.472Z,0.65
2023-04-03T09:18:55.464Z,0.75
2023-04-03T09:19:55.438Z,0.58
2023-04-03T09:20:55.427Z,0.60
2023-04-03T09:21:55.406Z,0.61
2023-04-03T09:22:55.403Z,0.68
2023-04-03T09:23:55.404Z,0.65
2023-04-03T09:24:55.526Z,0.69
2023-04-03T09:25:55.397Z,0.75
2023-04-03T09:26:55.398Z,0.76
2023-04-03T09:27:55.364Z,0.75
2023-04-03T09:28:55.338Z,0.91
2023-04-03T09:29:55.337Z,0.97
2023-04-03T09:30:55.313Z,1.05
2023-04-03T09:31:55.362Z,1.14
2023-04-03T09:32:55.406Z,1.12
2023-04-03T09:33:55.304Z,1.22
2023-04-03T09:34:55.605Z,1.23
2023-04-03T09:35:55.262Z,1.30
2023-04-03T09:36:55.247Z,1.11
2023-04-03T09:37:55.260Z,0.90
2023-04-03T09:38:55.242Z,0.88
2023-04-03T09:39:55.288Z,0.88
2023-04-03T09:40:55.330Z,0.65
2023-04-03T09:41:55.211Z,0.75
2023-04-03T09:43:00.939Z,0.79
2023-04-03T09:43:56.161Z,0.79
2023-04-03T09:44:55.184Z,0.73
2023-04-03T09:45:55.146Z,0.73
2023-04-03T09:46:55.170Z,0.61
2023-04-03T09:47:55.170Z,0.69
2023-04-03T09:49:07.429Z,0.58
2023-04-03T09:49:56.124Z,0.68
2023-04-03T09:50:55.126Z,0.72
2023-04-03T09:51:55.077Z,0.75
2023-04-03T09:52:55.089Z,0.87
2023-04-03T09:53:55.055Z,0.98
2023-04-03T09:54:55.064Z,1.24
2023-04-03T09:55:55.046Z,1.33
2023-04-03T09:56:55.161Z,1.40
2023-04-03T09:57:55.059Z,1.37
2023-04-03T09:58:55.000Z,1.41
2023-04-03T09:59:55.027Z,1.32
2023-04-03T10:00:55.035Z,1.20
2023-04-03T10:01:54.986Z,1.20
2023-04-03T10:02:54.993Z,1.15
2023-04-03T10:03:54.960Z,1.15
2023-04-03T10:05:06.653Z,0.97
2023-04-03T10:05:55.946Z,0.98
2023-04-03T10:06:54.918Z,0.91
2023-04-03T10:08:03.383Z,0.83
2023-04-03T10:08:55.908Z,0.72
2023-04-03T10:09:54.875Z,0.76
2023-04-03T10:10:54.904Z,0.78
2023-04-03T10:11:54.891Z,0.68
2023-04-03T10:12:54.984Z,0.62
2023-04-03T10:13:54.829Z,0.58
2023-04-03T10:14:54.821Z,0.72
2023-04-03T10:15:54.835Z,0.70
2023-04-03T10:16:54.830Z,0.75
2023-04-03T10:17:54.883Z,0.90
2023-04-03T10:19:02.492Z,0.96
2023-04-03T10:19:54.816Z,0.93
2023-04-03T10:20:54.800Z,1.08
2023-04-03T10:21:54.794Z,1.18
2023-04-03T10:22:54.760Z,1.23
2023-04-03T10:23:54.768Z,1.15
2023-04-03T10:24:54.720Z,1.14
2023-04-03T10:26:02.371Z,1.23
2023-04-03T10:26:54.767Z,1.24
2023-04-03T10:27:54.681Z,1.16
2023-04-03T10:28:54.814Z,1.14
2023-04-03T10:29:54.688Z,1.30
2023-04-03T10:30:54.836Z,1.36
2023-04-03T10:31:54.661Z,1.40
2023-04-03T10:32:54.669Z,1.30
2023-04-03T10:33:54.609Z,1.22
2023-04-03T10:35:04.517Z,1.09
2023-04-03T10:35:55.603Z,1.00
2023-04-03T10:36:54.593Z,1.11
2023-04-03T10:37:54.581Z,1.15
2023-04-03T10:38:54.565Z,1.16
2023-04-03T10:39:54.535Z,1.33
2023-04-03T10:40:54.527Z,1.58
2023-04-03T10:42:00.707Z,1.65
2023-04-03T10:42:55.500Z,1.68
2023-04-03T10:43:54.506Z,1.80
2023-04-03T10:44:54.592Z,1.80
2023-04-03T10:45:54.494Z,1.69
2023-04-03T10:46:54.459Z,1.48
2023-04-03T10:47:54.513Z,1.41
2023-04-03T10:48:54.452Z,1.50
2023-04-03T10:49:59.958Z,1.37
2023-04-03T10:50:55.422Z,1.24
2023-04-03T10:51:54.401Z,1.16
2023-04-03T10:52:54.407Z,1.24
2023-04-03T10:53:54.396Z,1.40
2023-04-03T10:54:57.006Z,1.52
2023-04-03T10:55:54.374Z,1.54
2023-04-03T10:57:04.641Z,1.54
2023-04-03T10:57:55.387Z,1.59
2023-04-03T10:58:54.335Z,1.42
2023-04-03T10:59:54.368Z,1.44
2023-04-03T11:00:54.419Z,1.42
2023-04-03T11:01:54.351Z,1.34
2023-04-03T11:02:54.345Z,1.41
2023-04-03T11:03:54.346Z,1.45
2023-04-03T11:04:54.266Z,1.45
2023-04-03T11:05:54.281Z,1.52
2023-04-03T11:06:54.256Z,1.59
2023-04-03T11:07:54.295Z,1.62
2023-04-03T11:08:54.219Z,1.68
2023-04-03T11:09:54.201Z,1.76
2023-04-03T11:10:54.227Z,1.81
2023-04-03T11:11:54.208Z,2.00
2023-04-03T11:12:54.187Z,2.12
2023-04-03T11:13:54.187Z,2.38
2023-04-03T11:14:54.157Z,2.54
2023-04-03T11:15:54.153Z,2.61
2023-04-03T11:16:54.722Z,2.74
2023-04-03T11:17:54.262Z,2.69
2023-04-03T11:18:54.127Z,2.72
2023-04-03T11:19:54.096Z,2.78
2023-04-03T11:20:54.130Z,2.74
2023-04-03T11:21:54.094Z,2.77
2023-04-03T11:22:54.085Z,2.74
2023-04-03T11:23:54.091Z,2.64
2023-04-03T11:24:54.043Z,2.63
2023-04-03T11:25:54.030Z,2.49
2023-04-03T11:26:54.019Z,2.39
2023-04-03T11:28:01.841Z,2.23
2023-04-03T11:28:54.138Z,2.38
2023-04-03T11:29:54.037Z,2.35
2023-04-03T11:30:55.318Z,2.24
2023-04-03T11:31:54.191Z,2.27
2023-04-03T11:32:54.133Z,2.18
2023-04-03T11:33:54.067Z,2.12
2023-04-03T11:34:53.963Z,2.06
2023-04-03T11:35:53.990Z,1.90
2023-04-03T11:36:53.934Z,1.76
2023-04-03T11:37:53.895Z,1.77
2023-04-03T11:38:54.711Z,1.80
2023-04-03T11:39:53.923Z,1.84
2023-04-03T11:40:53.890Z,1.81
2023-04-03T11:42:06.633Z,1.83
2023-04-03T11:42:54.836Z,1.79
2023-04-03T11:43:53.842Z,1.77
2023-04-03T11:44:53.820Z,1.73
2023-04-03T11:45:53.805Z,1.58
2023-04-03T11:46:57.036Z,1.48
2023-04-03T11:47:53.950Z,1.37
2023-04-03T11:48:53.945Z,1.24
2023-04-03T11:49:53.762Z,1.23
2023-04-03T11:50:53.767Z,1.23
2023-04-03T11:51:53.741Z,1.40
2023-04-03T11:52:53.751Z,1.58
2023-04-03T11:53:53.712Z,1.68
2023-04-03T11:54:53.700Z,1.90
2023-04-03T11:55:53.718Z,2.06
2023-04-03T11:56:53.707Z,2.18
2023-04-03T11:57:53.666Z,2.18
2023-04-03T11:58:53.651Z,2.24
2023-04-03T11:59:53.668Z,2.35
2023-04-03T12:00:53.694Z,2.39
2023-04-03T12:01:53.770Z,2.45
2023-04-03T12:02:54.790Z,2.48
2023-04-03T12:03:53.657Z,2.49
2023-04-03T12:04:53.703Z,2.48
2023-04-03T12:05:53.630Z,2.46
2023-04-03T12:06:53.587Z,2.24
2023-04-03T12:07:53.552Z,2.28
2023-04-03T12:08:53.575Z,2.20
2023-04-03T12:09:53.528Z,2.18
2023-04-03T12:10:54.267Z,2.20
2023-04-03T12:11:53.507Z,2.16
2023-04-03T12:12:53.503Z,2.07
2023-04-03T12:13:53.506Z,2.07
2023-04-03T12:14:53.490Z,2.12
2023-04-03T12:15:53.463Z,2.14
2023-04-03T12:16:53.489Z,2.20
2023-04-03T12:17:53.481Z,2.27
2023-04-03T12:18:53.473Z,2.21
2023-04-03T12:19:53.421Z,2.53
2023-04-03T12:20:53.530Z,2.71
2023-04-03T12:21:53.417Z,2.85
2023-04-03T12:22:53.388Z,2.96
2023-04-03T12:23:53.401Z,3.42
2023-04-03T12:24:53.361Z,3.68
2023-04-03T12:25:53.346Z,3.91
2023-04-03T12:26:53.362Z,4.11
2023-04-03T12:27:53.986Z,4.45
2023-04-03T12:28:53.338Z,4.48
2023-04-03T12:29:53.337Z,4.63
2023-04-03T12:30:53.339Z,4.80
2023-04-03T12:31:53.291Z,4.94
2023-04-03T12:33:05.801Z,4.84
2023-04-03T12:33:54.269Z,4.65
2023-04-03T12:34:53.257Z,4.44
2023-04-03T12:35:53.245Z,4.16
2023-04-03T12:36:53.345Z,3.91
2023-04-03T12:37:53.258Z,3.62
2023-04-03T12:38:53.242Z,3.42
2023-04-03T12:39:53.203Z,3.31
2023-04-03T12:40:53.203Z,3.10
2023-04-03T12:41:53.174Z,2.90
2023-04-03T12:42:53.166Z,2.75
2023-04-03T12:43:53.150Z,2.79
2023-04-03T12:44:53.161Z,2.79
2023-04-03T12:45:53.308Z,2.90
2023-04-03T12:46:53.208Z,2.69
2023-04-03T12:47:53.290Z,2.75
2023-04-03T12:48:53.117Z,2.87
2023-04-03T12:49:53.089Z,2.71
2023-04-03T12:50:53.095Z,2.59
2023-04-03T12:51:53.113Z,2.49
2023-04-03T12:52:56.328Z,2.60
2023-04-03T12:53:53.039Z,2.52
2023-04-03T12:54:53.049Z,2.48
2023-04-03T12:55:53.021Z,2.45
2023-04-03T12:56:53.046Z,2.41
2023-04-03T12:57:53.013Z,2.38
2023-04-03T12:58:53.005Z,2.38
2023-04-03T12:59:52.974Z,2.48
2023-04-03T13:00:52.960Z,2.43
2023-04-03T13:01:52.989Z,2.52
2023-04-03T13:02:53.066Z,2.59
2023-04-03T13:03:52.980Z,2.60
2023-04-03T13:04:52.948Z,2.60
2023-04-03T13:05:52.910Z,2.56
2023-04-03T13:06:52.904Z,2.57
2023-04-03T13:07:52.927Z,2.54
2023-04-03T13:08:53.016Z,2.49